createdAt,value
2022-08-28T00:01:42.128Z,61.92
2022-08-28T00:06:43.857Z,62.16
2022-08-28T00:11:47.079Z,61.96
2022-08-28T00:16:50.045Z,62.42
2022-08-28T00:21:52.627Z,62.53
2022-08-28T00:27:13.036Z,62.63
2022-08-28T00:32:15.253Z,62.99
2022-08-28T00:37:16.951Z,62.59
2022-08-28T00:42:18.714Z,62.77
2022-08-28T00:47:20.403Z,63.13
2022-08-28T00:52:26.919Z,63.22
2022-08-28T00:57:41.037Z,63.43
2022-08-28T01:02:44.099Z,63.44
2022-08-28T01:07:46.854Z,63.82
2022-08-28T01:12:54.947Z,64.03
2022-08-28T01:18:08.063Z,64.58
2022-08-28T01:23:20.154Z,64.98
2022-08-28T01:28:21.923Z,65.21
2022-08-28T01:33:28.260Z,65.23
2022-08-28T01:38:30.057Z,65.24
2022-08-28T01:43:32.351Z,65.06
2022-08-28T01:48:37.898Z,65.37
2022-08-28T01:53:40.991Z,65.35
2022-08-28T01:58:43.339Z,65.06
2022-08-28T02:03:45.222Z,65.31
2022-08-28T02:08:49.822Z,65.50
2022-08-28T02:13:53.213Z,65.10
2022-08-28T02:18:58.166Z,65.30
2022-08-28T02:23:59.945Z,65.37
2022-08-28T02:29:01.740Z,65.56
2022-08-28T02:34:03.686Z,65.74
2022-08-28T02:39:05.357Z,65.79
2022-08-28T02:44:07.170Z,65.70
2022-08-28T02:49:09.127Z,65.64
2022-08-28T02:54:10.860Z,65.71
2022-08-28T02:59:13.518Z,65.84
2022-08-28T03:04:15.251Z,65.91
2022-08-28T03:09:16.954Z,66.30
2022-08-28T03:14:18.617Z,66.23
2022-08-28T03:19:20.680Z,66.14
2022-08-28T03:24:22.363Z,65.91
2022-08-28T03:29:24.103Z,65.94
2022-08-28T03:34:25.925Z,65.87
2022-08-28T03:39:27.813Z,65.91
2022-08-28T03:44:29.491Z,66.12
2022-08-28T03:49:31.243Z,66.09
2022-08-28T03:54:33.595Z,66.37
2022-08-28T03:59:35.808Z,65.94
2022-08-28T04:04:37.467Z,66.06
2022-08-28T04:09:39.202Z,66.22
2022-08-28T04:14:59.060Z,66.29
2022-08-28T04:20:00.781Z,66.18
2022-08-28T04:25:02.481Z,66.44
2022-08-28T04:30:05.291Z,66.16
2022-08-28T04:35:10.944Z,65.93
2022-08-28T04:40:14.555Z,65.63
2022-08-28T04:45:16.395Z,65.18
2022-08-28T04:50:18.176Z,65.33
2022-08-28T04:55:20.942Z,65.32
2022-08-28T05:00:45.233Z,64.86
2022-08-28T05:05:50.640Z,65.20
2022-08-28T05:10:52.988Z,65.37
2022-08-28T05:15:55.475Z,65.69
2022-08-28T05:20:57.242Z,66.02
2022-08-28T05:25:58.974Z,65.58
2022-08-28T05:31:09.621Z,65.83
2022-08-28T05:36:11.909Z,65.63
2022-08-28T05:41:20.650Z,65.65
2022-08-28T05:46:29.443Z,65.49
2022-08-28T05:51:31.611Z,65.31
2022-08-28T05:56:36.342Z,65.67
2022-08-28T06:01:40.706Z,64.72
2022-08-28T06:06:42.920Z,64.26
2022-08-28T06:11:46.192Z,63.49
2022-08-28T06:16:52.404Z,63.54
2022-08-28T06:21:57.316Z,63.71
2022-08-28T06:26:59.710Z,63.74
2022-08-28T06:32:04.543Z,61.98
2022-08-28T06:37:06.406Z,61.89
2022-08-28T06:42:08.309Z,62.23
2022-08-28T06:47:11.186Z,60.48
2022-08-28T06:52:12.907Z,60.15
2022-08-28T06:57:14.639Z,61.02
2022-08-28T07:02:16.649Z,60.83
2022-08-28T07:07:31.303Z,60.62
2022-08-28T07:12:34.087Z,60.08
2022-08-28T07:17:37.059Z,59.51
2022-08-28T07:22:41.019Z,59.75
2022-08-28T07:27:43.726Z,58.72
2022-08-28T07:32:49.216Z,58.49
2022-08-28T07:37:50.970Z,58.99
2022-08-28T07:43:11.190Z,59.17
2022-08-28T07:48:13.277Z,58.71
2022-08-28T07:53:15.465Z,58.23
2022-08-28T07:58:18.568Z,58.52
2022-08-28T08:03:20.863Z,58.64
2022-08-28T08:08:22.808Z,57.11
2022-08-28T08:13:24.519Z,57.63
2022-08-28T08:18:26.147Z,58.19
2022-08-28T08:23:28.247Z,57.61
2022-08-28T08:28:30.273Z,58.47
2022-08-28T08:33:33.191Z,57.06
2022-08-28T08:38:36.199Z,55.47
2022-08-28T08:43:50.682Z,55.25
2022-08-28T08:48:53.812Z,56.34
2022-08-28T08:54:06.373Z,57.16
2022-08-28T08:59:14.645Z,54.45
2022-08-28T09:04:36.518Z,54.07
2022-08-28T09:09:44.522Z,53.63
2022-08-28T09:15:08.782Z,52.56
2022-08-28T09:20:14.960Z,53.19
2022-08-28T09:25:44.791Z,51.61
2022-08-28T09:30:55.244Z,50.76
2022-08-28T09:35:57.120Z,50.37
2022-08-28T09:41:30.758Z,48.36
2022-08-28T09:46:32.786Z,49.68
2022-08-28T09:51:38.694Z,49.97
2022-08-28T09:56:42.914Z,49.93
2022-08-28T10:01:51.634Z,49.03
2022-08-28T10:07:27.224Z,46.56
2022-08-28T10:13:05.967Z,47.09
2022-08-28T10:18:31.068Z,46.22
2022-08-28T10:24:07.246Z,45.06
2022-08-28T10:29:33.360Z,45.63
2022-08-28T10:34:47.111Z,46.01
2022-08-28T10:40:02.475Z,43.90
2022-08-28T10:45:11.963Z,44.43
2022-08-28T10:50:26.791Z,44.31
2022-08-28T10:55:38.940Z,44.87
2022-08-28T11:00:43.583Z,45.12
2022-08-28T11:05:53.891Z,46.16
2022-08-28T11:10:58.739Z,46.15
2022-08-28T11:16:10.189Z,45.75
2022-08-28T11:21:25.246Z,46.41
2022-08-28T11:26:38.626Z,48.44
2022-08-28T11:31:41.035Z,46.54
2022-08-28T11:36:43.398Z,47.31
2022-08-28T11:42:09.736Z,48.62
2022-08-28T11:47:43.394Z,46.70
2022-08-28T11:52:53.138Z,45.36
2022-08-28T11:58:25.729Z,45.06
2022-08-28T12:03:36.384Z,45.92
2022-08-28T12:08:53.036Z,44.74
2022-08-28T12:14:01.672Z,45.47
2022-08-28T12:19:04.755Z,44.75
2022-08-28T12:24:28.743Z,47.96
2022-08-28T12:29:49.260Z,46.13
2022-08-28T12:34:53.835Z,41.78
2022-08-28T12:39:59.829Z,42.79
2022-08-28T12:45:05.885Z,42.12
2022-08-28T12:50:42.918Z,44.64
2022-08-28T12:55:51.820Z,43.93
2022-08-28T13:00:58.097Z,41.34
2022-08-28T13:06:09.406Z,41.21
2022-08-28T13:11:11.423Z,40.67
2022-08-28T13:16:35.377Z,42.63
2022-08-28T13:22:00.515Z,43.40
2022-08-28T13:27:14.370Z,43.63
2022-08-28T13:32:17.789Z,42.18
2022-08-28T13:37:43.914Z,42.71
2022-08-28T13:42:46.943Z,41.35
2022-08-28T13:47:48.712Z,42.07
2022-08-28T13:52:51.683Z,41.17
2022-08-28T13:57:54.837Z,44.53
2022-08-28T14:03:15.506Z,45.02
2022-08-28T14:08:17.197Z,47.00
2022-08-28T14:13:19.900Z,44.61
2022-08-28T14:18:21.579Z,45.34
2022-08-28T14:23:23.575Z,43.66
2022-08-28T14:28:25.283Z,43.39
2022-08-28T14:33:27.035Z,43.85
2022-08-28T14:38:29.483Z,44.09
2022-08-28T14:43:31.637Z,43.21
2022-08-28T14:48:34.708Z,43.01
2022-08-28T14:53:37.339Z,44.87
2022-08-28T14:58:42.957Z,45.43
2022-08-28T15:03:44.734Z,45.36
2022-08-28T15:08:46.823Z,44.46
2022-08-28T15:13:50.146Z,44.54
2022-08-28T15:18:53.106Z,45.54
2022-08-28T15:23:57.880Z,46.03
2022-08-28T15:29:03.444Z,46.36
2022-08-28T15:34:07.301Z,45.84
2022-08-28T15:39:34.054Z,46.57
2022-08-28T15:44:36.158Z,45.91
2022-08-28T15:49:44.698Z,45.28
2022-08-28T15:54:50.766Z,45.10
2022-08-28T15:59:52.447Z,45.26
2022-08-28T16:04:54.767Z,45.13
2022-08-28T16:09:56.663Z,44.95
2022-08-28T16:14:58.570Z,44.85
2022-08-28T16:20:00.260Z,45.34
2022-08-28T16:25:02.031Z,46.72
2022-08-28T16:30:05.560Z,46.92
2022-08-28T16:35:08.008Z,45.29
2022-08-28T16:40:11.109Z,46.03
2022-08-28T16:45:12.827Z,47.90
2022-08-28T16:50:15.648Z,47.68
2022-08-28T16:55:17.507Z,47.89
2022-08-28T17:00:20.092Z,48.32
2022-08-28T17:05:23.092Z,48.21
2022-08-28T17:10:25.518Z,49.10
2022-08-28T17:15:27.483Z,49.78
2022-08-28T17:20:48.131Z,49.50
2022-08-28T17:25:49.923Z,49.40
2022-08-28T17:30:51.602Z,49.83
2022-08-28T17:35:55.690Z,50.65
2022-08-28T17:40:57.387Z,51.48
2022-08-28T17:45:59.410Z,51.33
2022-08-28T17:51:02.122Z,51.51
2022-08-28T17:56:06.058Z,51.62
2022-08-28T18:01:07.790Z,52.95
2022-08-28T18:06:09.490Z,53.37
2022-08-28T18:11:13.471Z,52.57
2022-08-28T18:16:15.471Z,51.78
2022-08-28T18:21:17.383Z,52.56
2022-08-28T18:26:19.206Z,53.12
2022-08-28T18:31:20.976Z,53.67
2022-08-28T18:36:23.286Z,53.60
2022-08-28T18:41:35.771Z,54.03
2022-08-28T18:46:48.175Z,53.78
2022-08-28T18:51:50.004Z,54.79
2022-08-28T18:56:51.776Z,54.67
2022-08-28T19:01:54.179Z,55.27
2022-08-28T19:06:56.040Z,55.74
2022-08-28T19:11:57.738Z,55.84
2022-08-28T19:17:00.332Z,55.66
2022-08-28T19:22:02.159Z,56.15
2022-08-28T19:27:04.475Z,55.61
2022-08-28T19:32:07.616Z,56.53
2022-08-28T19:37:09.303Z,56.99
2022-08-28T19:42:10.903Z,57.82
2022-08-28T19:47:13.740Z,58.89
2022-08-28T19:52:16.129Z,60.07
2022-08-28T19:57:20.308Z,60.84
2022-08-28T20:02:30.504Z,60.52
2022-08-28T20:07:32.536Z,60.89
2022-08-28T20:12:34.663Z,61.25
2022-08-28T20:17:43.900Z,61.21
2022-08-28T20:22:53.959Z,61.59
2022-08-28T20:28:01.375Z,61.66
2022-08-28T20:33:03.702Z,60.90
2022-08-28T20:38:10.999Z,60.96
2022-08-28T20:43:12.731Z,60.67
2022-08-28T20:48:14.517Z,60.08
2022-08-28T20:53:36.949Z,59.35
2022-08-28T20:58:38.771Z,59.23
2022-08-28T21:03:42.766Z,59.23
2022-08-28T21:08:50.038Z,58.96
2022-08-28T21:13:52.075Z,58.91
2022-08-28T21:19:15.244Z,58.36
2022-08-28T21:24:18.703Z,57.97
2022-08-28T21:29:22.631Z,58.03
2022-08-28T21:34:25.239Z,58.04
2022-08-28T21:39:27.258Z,57.69
2022-08-28T21:44:29.228Z,58.01
2022-08-28T21:49:31.190Z,57.76
2022-08-28T21:54:33.174Z,57.40
2022-08-28T21:59:37.994Z,57.33
2022-08-28T22:04:39.963Z,57.35
2022-08-28T22:09:41.744Z,57.17
2022-08-28T22:14:43.805Z,57.22
2022-08-28T22:19:46.747Z,56.98
2022-08-28T22:24:48.746Z,57.05
2022-08-28T22:29:50.662Z,57.25
2022-08-28T22:34:54.216Z,56.95
2022-08-28T22:39:56.000Z,57.05
2022-08-28T22:44:57.866Z,56.56
2022-08-28T22:50:00.213Z,56.39
2022-08-28T22:55:02.044Z,56.39
2022-08-28T23:00:08.301Z,56.72
2022-08-28T23:05:10.090Z,57.18
2022-08-28T23:10:13.417Z,57.42
2022-08-28T23:15:19.284Z,57.66
2022-08-28T23:20:22.592Z,58.05
2022-08-28T23:25:24.879Z,58.64
2022-08-28T23:30:28.567Z,59.11
2022-08-28T23:35:30.555Z,59.34
2022-08-28T23:40:34.021Z,59.51
2022-08-28T23:45:40.500Z,59.46
2022-08-28T23:50:42.501Z,60.38
2022-08-28T23:55:44.384Z,60.33
